createdAt,value
2017-12-26T00:00:49.330Z,100120.70
2017-12-26T00:03:24.405Z,100114.02
2017-12-26T00:05:59.565Z,100094.49
2017-12-26T00:08:34.128Z,100091.34
2017-12-26T00:11:09.096Z,100091.05
2017-12-26T00:13:44.054Z,100082.30
2017-12-26T00:16:19.081Z,100071.86
2017-12-26T00:18:54.041Z,100076.58
2017-12-26T00:21:29.012Z,100083.27
2017-12-26T00:24:03.877Z,100081.23
2017-12-26T00:26:38.948Z,100063.55
2017-12-26T00:29:14.012Z,100053.23
2017-12-26T00:31:48.976Z,100066.31
2017-12-26T00:34:23.932Z,100068.27
2017-12-26T00:36:58.911Z,100062.31
2017-12-26T00:39:33.768Z,100053.83
2017-12-26T00:42:08.842Z,100050.08
2017-12-26T00:44:43.715Z,100052.05
2017-12-26T00:47:18.688Z,100046.77
2017-12-26T00:49:53.348Z,100040.09
2017-12-26T00:52:28.124Z,100025.50
2017-12-26T00:55:03.232Z,100039.31
2017-12-26T00:57:38.037Z,100024.98
2017-12-26T01:00:12.610Z,100018.62
2017-12-26T01:02:47.989Z,100005.84
2017-12-26T01:05:22.891Z,100014.86
2017-12-26T01:07:57.673Z,100003.88
2017-12-26T01:10:32.425Z,99990.63
2017-12-26T01:13:07.410Z,99985.78
2017-12-26T01:15:42.100Z,99981.90
2017-12-26T01:18:16.932Z,99997.30
2017-12-26T01:20:51.886Z,99976.80
2017-12-26T01:23:26.817Z,99959.95
2017-12-26T01:26:01.876Z,99959.59
2017-12-26T01:28:36.951Z,99958.63
2017-12-26T01:31:11.805Z,99947.45
2017-12-26T01:33:46.773Z,99952.27
2017-12-26T01:36:21.990Z,99939.09
2017-12-26T01:38:57.153Z,99938.23
2017-12-26T01:41:32.259Z,99936.33
2017-12-26T01:44:07.236Z,99932.59
2017-12-26T01:46:42.119Z,99922.34
2017-12-26T01:49:17.083Z,99917.77
2017-12-26T01:51:51.931Z,99922.92
2017-12-26T01:54:27.111Z,99927.77
2017-12-26T01:57:01.940Z,99917.66
2017-12-26T01:59:36.953Z,99912.06
2017-12-26T02:02:11.825Z,99906.53
2017-12-26T02:04:46.541Z,99894.70
2017-12-26T02:07:21.605Z,99879.80
2017-12-26T02:09:56.565Z,99884.56
2017-12-26T02:12:31.639Z,99875.98
2017-12-26T02:15:06.797Z,99872.81
2017-12-26T02:17:41.863Z,99869.68
2017-12-26T02:20:17.064Z,99850.74
2017-12-26T02:22:52.116Z,99859.27
2017-12-26T02:25:27.076Z,99854.58
2017-12-26T02:28:01.885Z,99859.22
2017-12-26T02:30:36.643Z,99846.19
2017-12-26T02:33:11.837Z,99841.13
2017-12-26T02:35:46.597Z,99839.47
2017-12-26T02:38:21.494Z,99838.80
2017-12-26T02:40:56.352Z,99815.50
2017-12-26T02:43:31.220Z,99814.45
2017-12-26T02:46:06.082Z,99811.97
2017-12-26T02:48:41.103Z,99809.45
2017-12-26T02:51:16.068Z,99804.22
2017-12-26T02:53:51.132Z,99799.44
2017-12-26T02:56:26.022Z,99800.92
2017-12-26T02:59:01.187Z,99790.30
2017-12-26T03:01:36.048Z,99787.44
2017-12-26T03:04:10.976Z,99795.09
2017-12-26T03:06:45.536Z,99778.44
2017-12-26T03:09:20.611Z,99775.83
2017-12-26T03:11:55.420Z,99758.16
2017-12-26T03:14:30.528Z,99749.34
2017-12-26T03:17:05.511Z,99749.53
2017-12-26T03:19:40.700Z,99741.90
2017-12-26T03:22:15.693Z,99741.86
2017-12-26T03:24:50.409Z,99735.25
2017-12-26T03:27:24.864Z,99731.19
2017-12-26T03:29:59.828Z,99717.47
2017-12-26T03:32:34.601Z,99718.10
2017-12-26T03:35:11.237Z,99691.27
2017-12-26T03:37:45.605Z,99699.20
2017-12-26T03:40:20.400Z,99685.04
2017-12-26T03:42:55.388Z,99677.03
2017-12-26T03:45:30.088Z,99678.75
2017-12-26T03:48:05.106Z,99668.51
2017-12-26T03:50:40.181Z,99657.78
2017-12-26T03:53:15.157Z,99653.80
2017-12-26T03:55:50.006Z,99643.43
2017-12-26T03:58:25.082Z,99641.16
2017-12-26T04:00:59.898Z,99637.84
2017-12-26T04:03:34.967Z,99626.95
2017-12-26T04:06:09.920Z,99624.42
2017-12-26T04:08:44.888Z,99618.75
2017-12-26T04:11:19.753Z,99607.12
2017-12-26T04:13:54.721Z,99606.03
2017-12-26T04:16:29.583Z,99590.86
2017-12-26T04:19:04.660Z,99589.78
2017-12-26T04:21:39.141Z,99572.38
2017-12-26T04:24:14.042Z,99572.44
2017-12-26T04:26:49.048Z,99562.02
2017-12-26T04:29:24.150Z,99558.20
2017-12-26T04:31:59.219Z,99560.83
2017-12-26T04:34:34.220Z,99552.64
2017-12-26T04:37:09.088Z,99536.22
2017-12-26T04:39:43.860Z,99521.45
2017-12-26T04:42:18.944Z,99511.45
2017-12-26T04:44:53.837Z,99507.71
2017-12-26T04:47:28.713Z,99498.93
2017-12-26T04:50:03.459Z,99505.32
2017-12-26T04:52:38.489Z,99485.04
2017-12-26T04:55:13.525Z,99485.13
2017-12-26T04:57:48.471Z,99481.73
2017-12-26T05:00:23.381Z,99476.40
2017-12-26T05:02:57.949Z,99470.51
2017-12-26T05:05:32.913Z,99450.67
2017-12-26T05:08:07.890Z,99456.38
2017-12-26T05:10:42.816Z,99442.97
2017-12-26T05:13:17.747Z,99430.03
2017-12-26T05:15:53.050Z,99419.34
2017-12-26T05:18:27.922Z,99422.32
2017-12-26T05:21:02.780Z,99419.82
2017-12-26T05:23:37.698Z,99428.87
2017-12-26T05:26:12.651Z,99422.56
2017-12-26T05:28:47.686Z,99421.77
2017-12-26T05:31:22.841Z,99426.07
2017-12-26T05:33:57.808Z,99414.21
2017-12-26T05:36:32.869Z,99405.95
2017-12-26T05:39:07.951Z,99391.79
2017-12-26T05:41:43.104Z,99389.48
2017-12-26T05:44:18.178Z,99379.06
2017-12-26T05:46:53.032Z,99378.72
2017-12-26T05:49:27.908Z,99369.07
2017-12-26T05:52:02.664Z,99361.05
2017-12-26T05:54:37.632Z,99345.90
2017-12-26T05:57:12.691Z,99345.07
2017-12-26T05:59:47.843Z,99342.38
2017-12-26T06:02:22.729Z,99336.19
2017-12-26T06:04:57.825Z,99328.38
2017-12-26T06:07:32.728Z,99321.09
2017-12-26T06:10:07.924Z,99329.66
2017-12-26T06:12:42.955Z,99317.23
2017-12-26T06:15:18.057Z,99335.88
2017-12-26T06:17:53.032Z,99331.36
2017-12-26T06:20:27.557Z,99322.00
2017-12-26T06:23:02.741Z,99319.59
2017-12-26T06:25:37.550Z,99343.10
2017-12-26T06:28:12.521Z,99313.95
2017-12-26T06:30:47.305Z,99313.00
2017-12-26T06:33:22.310Z,99297.02
2017-12-26T06:35:57.156Z,99298.78
2017-12-26T06:38:32.030Z,99285.06
2017-12-26T06:41:06.941Z,99283.58
2017-12-26T06:43:42.008Z,99288.79
2017-12-26T06:46:16.972Z,99283.11
2017-12-26T06:48:51.806Z,99281.00
2017-12-26T06:51:26.712Z,99275.17
2017-12-26T06:54:01.801Z,99270.79
2017-12-26T06:56:36.590Z,99293.70
2017-12-26T06:59:11.551Z,99290.87
2017-12-26T07:01:46.417Z,99293.64
2017-12-26T07:04:21.293Z,99267.00
2017-12-26T07:06:56.176Z,99271.67
2017-12-26T07:09:31.073Z,99264.38
2017-12-26T07:12:05.953Z,99268.34
2017-12-26T07:14:40.895Z,99267.27
2017-12-26T07:17:15.779Z,99273.73
2017-12-26T07:19:51.061Z,99266.53
2017-12-26T07:22:25.720Z,99274.98
2017-12-26T07:25:00.632Z,99272.31
2017-12-26T07:27:34.933Z,99276.48
2017-12-26T07:30:10.128Z,99280.52
2017-12-26T07:32:45.033Z,99280.02
2017-12-26T07:35:19.929Z,99283.78
2017-12-26T07:37:54.693Z,99280.16
2017-12-26T07:40:29.784Z,99291.46
2017-12-26T07:43:04.745Z,99306.30
2017-12-26T07:45:39.611Z,99292.51
2017-12-26T07:48:14.684Z,99286.95
2017-12-26T07:50:49.687Z,99292.59
2017-12-26T07:53:24.613Z,99300.49
2017-12-26T07:55:59.598Z,99297.38
2017-12-26T07:58:34.497Z,99301.14
2017-12-26T08:01:09.352Z,99296.41
2017-12-26T08:03:44.241Z,99307.69
2017-12-26T08:06:19.153Z,99314.27
2017-12-26T08:08:54.112Z,99310.86
2017-12-26T08:11:29.166Z,99299.72
2017-12-26T08:14:04.041Z,99305.83
2017-12-26T08:16:39.005Z,99318.61
2017-12-26T08:19:13.968Z,99323.53
2017-12-26T08:21:48.834Z,99325.33
2017-12-26T08:24:23.705Z,99326.04
2017-12-26T08:26:58.851Z,99332.13
2017-12-26T08:29:33.884Z,99325.34
2017-12-26T08:32:08.592Z,99323.77
2017-12-26T08:34:43.628Z,99330.03
2017-12-26T08:37:18.553Z,99328.77
2017-12-26T08:39:53.745Z,99325.87
2017-12-26T08:42:28.827Z,99323.66
2017-12-26T08:45:03.665Z,99328.41
2017-12-26T08:47:38.708Z,99328.81
2017-12-26T08:50:13.732Z,99335.73
2017-12-26T08:52:48.805Z,99337.25
2017-12-26T08:55:23.667Z,99354.19
2017-12-26T08:57:58.757Z,99373.98
2017-12-26T09:00:33.645Z,99362.73
2017-12-26T09:03:08.612Z,99365.88
2017-12-26T09:05:43.478Z,99370.66
2017-12-26T09:08:18.132Z,99376.41
2017-12-26T09:10:53.060Z,99381.26
2017-12-26T09:13:28.140Z,99385.92
2017-12-26T09:16:03.056Z,99377.81
2017-12-26T09:18:38.012Z,99389.56
2017-12-26T09:21:12.963Z,99402.80
2017-12-26T09:23:47.997Z,99408.34
2017-12-26T09:26:22.953Z,99409.95
2017-12-26T09:28:58.228Z,99419.03
2017-12-26T09:31:34.125Z,99413.68
2017-12-26T09:34:09.236Z,99428.06
2017-12-26T09:36:44.481Z,99428.81
2017-12-26T09:39:19.038Z,99420.44
2017-12-26T09:41:54.044Z,99426.70
2017-12-26T09:44:29.150Z,99417.91
2017-12-26T09:47:04.152Z,99399.71
2017-12-26T09:49:39.133Z,99393.52
2017-12-26T09:52:13.912Z,99384.70
2017-12-26T09:54:48.781Z,99382.44
2017-12-26T09:57:23.643Z,99378.34
2017-12-26T09:59:58.561Z,99380.83
2017-12-26T10:02:33.549Z,99386.64
2017-12-26T10:05:08.620Z,99390.13
2017-12-26T10:07:43.568Z,99399.05
2017-12-26T10:10:18.573Z,99398.80
2017-12-26T10:12:53.643Z,99399.31
2017-12-26T10:15:28.636Z,99392.56
2017-12-26T10:18:03.499Z,99389.80
2017-12-26T10:20:38.417Z,99402.14
2017-12-26T10:23:13.244Z,99419.77
2017-12-26T10:25:48.254Z,99415.31
2017-12-26T10:28:23.110Z,99421.55
2017-12-26T10:30:58.090Z,99413.39
2017-12-26T10:33:33.473Z,99416.25
2017-12-26T10:36:08.394Z,99411.39
2017-12-26T10:38:43.307Z,99410.62
2017-12-26T10:41:18.374Z,99417.68
2017-12-26T10:43:53.599Z,99411.09
2017-12-26T10:46:28.377Z,99403.43
2017-12-26T10:49:03.376Z,99410.34
2017-12-26T10:51:38.276Z,99410.17
2017-12-26T10:54:13.268Z,99401.17
2017-12-26T10:56:48.166Z,99390.64
2017-12-26T10:59:23.289Z,99408.96
2017-12-26T11:01:58.366Z,99401.95
2017-12-26T11:04:33.460Z,99402.42
2017-12-26T11:07:08.321Z,99392.15
2017-12-26T11:09:43.302Z,99401.59
2017-12-26T11:12:17.703Z,99388.41
2017-12-26T11:14:52.573Z,99417.42
2017-12-26T11:17:27.270Z,99405.17
2017-12-26T11:20:02.062Z,99410.05
2017-12-26T11:22:36.872Z,99399.93
2017-12-26T11:25:11.662Z,99398.97
2017-12-26T11:27:55.766Z,99411.38
2017-12-26T11:30:30.541Z,99416.88
2017-12-26T11:33:05.663Z,99415.20
2017-12-26T11:35:40.549Z,99415.27
2017-12-26T11:38:15.438Z,99414.22
2017-12-26T11:40:50.308Z,99418.06
2017-12-26T11:43:25.268Z,99408.73
2017-12-26T11:46:00.246Z,99403.56
2017-12-26T11:48:35.126Z,99409.27
2017-12-26T11:51:10.297Z,99414.94
2017-12-26T11:53:45.176Z,99414.75
2017-12-26T11:56:20.360Z,99418.88
2017-12-26T11:58:55.312Z,99422.35
2017-12-26T12:01:30.357Z,99426.00
2017-12-26T12:04:05.165Z,99409.47
2017-12-26T12:06:40.059Z,99407.55
2017-12-26T12:09:15.021Z,99420.52
2017-12-26T12:11:49.994Z,99407.77
2017-12-26T12:14:24.962Z,99416.64
2017-12-26T12:17:00.055Z,99417.54
2017-12-26T12:19:34.919Z,99421.81
2017-12-26T12:22:10.687Z,99429.63
2017-12-26T12:24:45.248Z,99416.02
2017-12-26T12:27:20.268Z,99420.88
2017-12-26T12:29:55.237Z,99408.86
2017-12-26T12:32:30.046Z,99412.27
2017-12-26T12:35:05.019Z,99412.90
2017-12-26T12:37:40.072Z,99411.56
2017-12-26T12:40:15.501Z,99413.77
2017-12-26T12:42:50.763Z,99417.77
2017-12-26T12:45:25.758Z,99421.82
2017-12-26T12:48:00.518Z,99416.29
2017-12-26T12:50:35.605Z,99426.84
2017-12-26T12:53:10.470Z,99422.49
2017-12-26T12:55:45.447Z,99429.37
2017-12-26T12:58:20.397Z,99424.09
2017-12-26T13:00:55.470Z,99418.95
2017-12-26T13:03:30.382Z,99415.55
2017-12-26T13:06:05.505Z,99415.11
2017-12-26T13:08:40.422Z,99430.97
2017-12-26T13:11:15.421Z,99417.71
2017-12-26T13:13:50.297Z,99430.42
2017-12-26T13:16:25.493Z,99424.78
2017-12-26T13:19:00.658Z,99415.66
2017-12-26T13:21:35.525Z,99423.08
2017-12-26T13:24:10.595Z,99423.36
2017-12-26T13:26:45.660Z,99431.91
2017-12-26T13:29:20.622Z,99430.46
2017-12-26T13:31:55.647Z,99430.56
2017-12-26T13:34:30.450Z,99421.63
2017-12-26T13:37:05.630Z,99420.94
2017-12-26T13:39:40.617Z,99419.23
2017-12-26T13:42:15.445Z,99429.19
2017-12-26T13:44:50.260Z,99417.56
2017-12-26T13:47:25.216Z,99421.59
2017-12-26T13:50:00.292Z,99421.16
2017-12-26T13:52:35.077Z,99430.59
2017-12-26T13:55:10.168Z,99417.52
2017-12-26T13:57:44.836Z,99425.73
2017-12-26T14:00:20.405Z,99429.58
2017-12-26T14:02:55.184Z,99428.13
2017-12-26T14:05:30.115Z,99440.73
2017-12-26T14:08:05.125Z,99437.61
2017-12-26T14:10:40.149Z,99441.30
2017-12-26T14:13:14.905Z,99433.89
2017-12-26T14:15:49.813Z,99442.66
2017-12-26T14:18:24.984Z,99451.42
2017-12-26T14:21:00.057Z,99445.77
2017-12-26T14:23:34.964Z,99447.65
2017-12-26T14:26:09.933Z,99458.80
2017-12-26T14:28:44.736Z,99463.20
2017-12-26T14:31:19.950Z,99454.63
2017-12-26T14:33:54.735Z,99468.05
2017-12-26T14:36:29.456Z,99460.55
2017-12-26T14:39:03.911Z,99453.02
2017-12-26T14:41:38.485Z,99454.91
2017-12-26T14:44:13.194Z,99451.94
2017-12-26T14:46:48.169Z,99448.67
2017-12-26T14:49:23.425Z,99448.81
2017-12-26T14:51:58.321Z,99457.38
2017-12-26T14:54:33.020Z,99462.25
2017-12-26T14:57:07.993Z,99458.73
2017-12-26T14:59:42.892Z,99460.07
2017-12-26T15:02:17.752Z,99462.16
2017-12-26T15:04:52.420Z,99460.25
2017-12-26T15:07:26.790Z,99470.52
2017-12-26T15:10:01.543Z,99471.69
2017-12-26T15:12:36.474Z,99487.41
2017-12-26T15:15:11.283Z,99476.61
2017-12-26T15:17:46.062Z,99475.81
2017-12-26T15:20:20.877Z,99476.92
2017-12-26T15:22:55.756Z,99468.44
2017-12-26T15:25:30.724Z,99475.17
2017-12-26T15:28:05.316Z,99479.62
2017-12-26T15:30:40.253Z,99483.91
2017-12-26T15:33:15.141Z,99481.92
2017-12-26T15:35:50.124Z,99482.20
2017-12-26T15:38:25.197Z,99501.61
2017-12-26T15:40:59.991Z,99491.08
2017-12-26T15:43:34.999Z,99508.30
2017-12-26T15:46:09.765Z,99490.40
2017-12-26T15:48:44.675Z,99494.34
2017-12-26T15:51:19.447Z,99500.67
2017-12-26T15:53:54.773Z,99509.97
2017-12-26T15:56:29.661Z,99502.58
2017-12-26T15:59:04.432Z,99508.59
2017-12-26T16:01:39.505Z,99511.98
2017-12-26T16:04:14.447Z,99510.47
2017-12-26T16:06:49.391Z,99513.88
2017-12-26T16:09:24.384Z,99514.66
2017-12-26T16:11:59.162Z,99525.93
2017-12-26T16:14:33.929Z,99520.37
2017-12-26T16:17:08.884Z,99527.95
2017-12-26T16:19:43.861Z,99525.41
2017-12-26T16:22:18.826Z,99517.61
2017-12-26T16:24:53.779Z,99511.66
2017-12-26T16:27:28.543Z,99520.35
2017-12-26T16:30:03.276Z,99516.81
2017-12-26T16:32:38.327Z,99520.79
2017-12-26T16:35:13.189Z,99513.00
2017-12-26T16:37:48.213Z,99512.64
2017-12-26T16:40:23.272Z,99520.36
2017-12-26T16:42:57.719Z,99518.22
2017-12-26T16:45:33.216Z,99513.51
2017-12-26T16:48:08.613Z,99510.02
2017-12-26T16:50:43.491Z,99506.98
2017-12-26T16:53:18.483Z,99504.91
2017-12-26T16:55:53.342Z,99499.53
2017-12-26T16:58:28.213Z,99503.41
2017-12-26T17:01:03.280Z,99504.75
2017-12-26T17:03:38.136Z,99502.54
2017-12-26T17:06:13.264Z,99495.98
2017-12-26T17:08:48.125Z,99492.72
2017-12-26T17:11:23.014Z,99494.92
2017-12-26T17:13:57.992Z,99495.83
2017-12-26T17:16:32.771Z,99496.43
2017-12-26T17:19:07.637Z,99496.56
2017-12-26T17:21:42.328Z,99501.05
2017-12-26T17:24:17.192Z,99502.05
2017-12-26T17:26:52.293Z,99492.98
2017-12-26T17:29:26.997Z,99491.16
2017-12-26T17:32:02.072Z,99493.89
2017-12-26T17:34:37.032Z,99495.36
2017-12-26T17:37:11.801Z,99492.48
2017-12-26T17:39:46.617Z,99490.55
2017-12-26T17:42:21.580Z,99495.53
2017-12-26T17:44:56.536Z,99494.49
2017-12-26T17:47:31.465Z,99489.81
2017-12-26T17:50:06.345Z,99499.23
2017-12-26T17:52:41.350Z,99494.33
2017-12-26T17:55:16.296Z,99501.01
2017-12-26T17:57:51.304Z,99494.06
2017-12-26T18:00:26.068Z,99500.64
2017-12-26T18:03:01.128Z,99488.25
2017-12-26T18:05:35.908Z,99484.30
2017-12-26T18:08:11.068Z,99484.84
2017-12-26T18:10:45.972Z,99485.34
2017-12-26T18:13:20.810Z,99478.48
2017-12-26T18:15:55.732Z,99480.59
2017-12-26T18:18:30.713Z,99477.92
2017-12-26T18:21:05.895Z,99476.24
2017-12-26T18:23:40.700Z,99484.09
2017-12-26T18:26:15.646Z,99488.92
2017-12-26T18:31:24.317Z,99491.13
2017-12-26T18:33:59.020Z,99492.76
2017-12-26T18:36:33.892Z,99482.66
2017-12-26T18:39:08.747Z,99481.15
2017-12-26T18:41:43.527Z,99483.39
2017-12-26T18:44:18.314Z,99484.06
2017-12-26T18:46:53.256Z,99485.83
2017-12-26T18:49:28.312Z,99480.68
2017-12-26T18:52:03.485Z,99483.52
2017-12-26T18:54:38.351Z,99477.86
2017-12-26T18:57:13.319Z,99478.41
2017-12-26T18:59:48.076Z,99473.63
2017-12-26T19:02:23.070Z,99466.14
2017-12-26T19:04:57.732Z,99460.08
2017-12-26T19:07:32.713Z,99457.41
2017-12-26T19:10:07.561Z,99459.01
2017-12-26T19:12:42.682Z,99455.97
2017-12-26T19:15:17.593Z,99451.83
2017-12-26T19:17:52.380Z,99448.06
2017-12-26T19:20:27.473Z,99447.53
2017-12-26T19:23:02.360Z,99446.30
2017-12-26T19:25:37.544Z,99441.16
2017-12-26T19:28:12.443Z,99443.63
2017-12-26T19:30:47.596Z,99444.66
2017-12-26T19:33:23.510Z,99440.85
2017-12-26T19:35:57.852Z,99439.68
2017-12-26T19:38:32.696Z,99433.94
2017-12-26T19:41:07.216Z,99428.53
2017-12-26T19:43:42.181Z,99425.92
2017-12-26T19:46:17.145Z,99419.34
2017-12-26T19:48:52.122Z,99416.30
2017-12-26T19:51:27.020Z,99409.59
2017-12-26T19:54:01.929Z,99414.66
2017-12-26T19:56:36.721Z,99404.19
2017-12-26T19:59:11.701Z,99401.64
2017-12-26T20:01:46.865Z,99403.52
2017-12-26T20:04:21.622Z,99411.02
2017-12-26T20:06:56.501Z,99400.91
2017-12-26T20:09:31.558Z,99402.31
2017-12-26T20:12:06.435Z,99395.27
2017-12-26T20:14:41.287Z,99396.23
2017-12-26T20:17:16.092Z,99390.35
2017-12-26T20:19:50.811Z,99395.42
2017-12-26T20:22:25.689Z,99389.24
2017-12-26T20:25:00.649Z,99393.08
2017-12-26T20:27:35.336Z,99383.73
2017-12-26T20:30:10.428Z,99382.94
2017-12-26T20:32:45.595Z,99381.13
2017-12-26T20:35:20.671Z,99374.61
2017-12-26T20:37:55.249Z,99366.80
2017-12-26T20:40:30.088Z,99367.84
2017-12-26T20:43:05.164Z,99371.78
2017-12-26T20:45:39.860Z,99356.52
2017-12-26T20:48:14.772Z,99355.75
2017-12-26T20:50:49.780Z,99347.88
2017-12-26T20:53:24.900Z,99349.31
2017-12-26T20:55:59.663Z,99347.38
2017-12-26T20:58:34.527Z,99343.61
2017-12-26T21:01:09.611Z,99338.27
2017-12-26T21:03:44.521Z,99338.27
2017-12-26T21:06:19.467Z,99334.20
2017-12-26T21:08:54.481Z,99323.59
2017-12-26T21:11:29.432Z,99323.42
2017-12-26T21:14:04.223Z,99315.27
2017-12-26T21:16:39.283Z,99315.28
2017-12-26T21:19:14.419Z,99310.38
2017-12-26T21:21:49.431Z,99312.14
2017-12-26T21:24:24.425Z,99305.63
2017-12-26T21:26:59.757Z,99302.90
2017-12-26T21:29:34.644Z,99302.06
2017-12-26T21:32:09.628Z,99293.25
2017-12-26T21:34:44.856Z,99286.72
2017-12-26T21:37:19.852Z,99281.38
2017-12-26T21:39:55.008Z,99279.61
2017-12-26T21:42:30.219Z,99269.66
2017-12-26T21:45:04.916Z,99268.03
2017-12-26T21:47:39.680Z,99264.39
2017-12-26T21:50:14.860Z,99270.27
2017-12-26T21:52:49.784Z,99278.14
2017-12-26T21:55:24.901Z,99268.20
2017-12-26T21:58:00.063Z,99260.75
2017-12-26T22:00:34.997Z,99259.95
2017-12-26T22:03:10.357Z,99262.39
2017-12-26T22:05:45.512Z,99262.09
2017-12-26T22:08:20.293Z,99261.29
2017-12-26T22:10:55.270Z,99256.11
2017-12-26T22:13:30.056Z,99258.16
2017-12-26T22:16:05.133Z,99249.78
2017-12-26T22:18:39.796Z,99237.23
2017-12-26T22:21:14.576Z,99240.67
2017-12-26T22:23:49.596Z,99240.00
2017-12-26T22:26:24.563Z,99229.86
2017-12-26T22:28:59.460Z,99233.40
2017-12-26T22:31:34.249Z,99229.33
2017-12-26T22:34:09.121Z,99226.36
2017-12-26T22:36:44.176Z,99215.08
2017-12-26T22:39:19.152Z,99214.72
2017-12-26T22:41:54.005Z,99216.79
2017-12-26T22:44:28.376Z,99218.69
2017-12-26T22:47:03.353Z,99211.75
2017-12-26T22:49:38.320Z,99205.08
2017-12-26T22:52:13.220Z,99209.05
2017-12-26T22:54:48.094Z,99202.78
2017-12-26T22:57:22.713Z,99212.52
2017-12-26T22:59:57.876Z,99194.70
2017-12-26T23:02:32.734Z,99195.78
2017-12-26T23:05:07.811Z,99183.73
2017-12-26T23:07:42.578Z,99184.55
2017-12-26T23:10:17.836Z,99184.70
2017-12-26T23:12:52.748Z,99184.61
2017-12-26T23:15:32.907Z,99180.17
2017-12-26T23:18:27.720Z,99174.73
2017-12-26T23:21:02.144Z,99167.56
2017-12-26T23:23:42.153Z,99159.70
2017-12-26T23:26:21.966Z,99157.56
2017-12-26T23:29:01.731Z,99152.36
2017-12-26T23:31:41.522Z,99148.53
2017-12-26T23:34:21.494Z,99138.56
2017-12-26T23:37:01.294Z,99134.56
2017-12-26T23:39:41.017Z,99123.63
2017-12-26T23:42:20.717Z,99117.83
2017-12-26T23:45:01.378Z,99113.23
2017-12-26T23:47:40.980Z,99106.27
2017-12-26T23:50:20.641Z,99083.31
2017-12-26T23:53:00.213Z,99104.07
2017-12-26T23:55:40.048Z,99094.50
